createdAt,value
2022-10-11T00:00:14.264Z,96989.29
2022-10-11T00:03:40.291Z,96989.09
2022-10-11T00:07:01.701Z,96986.77
2022-10-11T00:10:08.310Z,96982.39
2022-10-11T00:13:14.348Z,96986.66
2022-10-11T00:16:36.779Z,96984.73
2022-10-11T00:19:39.559Z,96987.70
2022-10-11T00:22:37.351Z,96986.31
2022-10-11T00:25:46.279Z,96983.98
2022-10-11T00:28:54.453Z,96981.27
2022-10-11T00:31:57.279Z,96978.92
2022-10-11T00:35:12.322Z,96976.48
2022-10-11T00:38:11.259Z,96974.60
2022-10-11T00:41:20.288Z,96973.20
2022-10-11T00:44:14.283Z,96974.67
2022-10-11T00:47:14.259Z,96973.68
2022-10-11T00:50:26.231Z,96968.52
2022-10-11T00:53:38.274Z,96971.29
2022-10-11T00:56:48.248Z,96967.36
2022-10-11T00:59:54.249Z,96964.81
2022-10-11T01:03:01.260Z,96965.23
2022-10-11T01:06:07.720Z,96960.59
2022-10-11T01:09:04.604Z,96961.84
2022-10-11T01:12:05.309Z,96960.02
2022-10-11T01:15:02.280Z,96956.59
2022-10-11T01:18:14.285Z,96954.05
2022-10-11T01:25:11.878Z,96956.81
2022-10-11T01:28:09.492Z,96956.61
2022-10-11T01:31:04.353Z,96954.02
2022-10-11T01:34:12.244Z,96950.52
2022-10-11T01:37:06.295Z,96951.70
2022-10-11T01:39:54.580Z,96952.61
2022-10-11T01:43:00.345Z,96951.21
2022-10-11T01:46:18.249Z,96946.30
2022-10-11T01:49:18.219Z,96944.02
2022-10-11T01:52:15.272Z,96945.59
2022-10-11T01:55:25.308Z,96942.45
2022-10-11T01:58:20.249Z,96944.42
2022-10-11T02:01:31.358Z,96944.67
2022-10-11T02:04:47.596Z,96946.14
2022-10-11T02:08:02.304Z,96943.80
2022-10-11T02:11:11.276Z,96944.82
2022-10-11T02:14:08.322Z,96935.68
2022-10-11T02:17:19.307Z,96938.73
2022-10-11T02:20:28.332Z,96942.90
2022-10-11T02:23:26.315Z,96938.77
2022-10-11T02:26:38.300Z,96934.41
2022-10-11T02:29:47.267Z,96937.84
2022-10-11T02:32:56.339Z,96938.17
2022-10-11T02:36:13.202Z,96928.87
2022-10-11T02:39:14.271Z,96927.62
2022-10-11T02:42:23.258Z,96924.11
2022-10-11T02:45:23.200Z,96923.10
2022-10-11T02:48:33.299Z,96924.05
2022-10-11T02:51:47.217Z,96925.08
2022-10-11T02:54:45.284Z,96926.36
2022-10-11T02:57:40.223Z,96924.99
2022-10-11T03:00:21.701Z,96916.69
2022-10-11T03:03:01.406Z,96916.23
2022-10-11T03:05:45.281Z,96915.27
2022-10-11T03:08:30.103Z,96920.13
2022-10-11T03:11:36.265Z,96918.41
2022-10-11T03:14:31.444Z,96921.14
2022-10-11T03:17:35.203Z,96928.77
2022-10-11T03:20:29.320Z,96928.67
2022-10-11T03:23:23.280Z,96931.23
2022-10-11T03:26:27.278Z,96929.64
2022-10-11T03:29:16.215Z,96924.80
2022-10-11T03:32:10.303Z,96917.95
2022-10-11T03:35:05.343Z,96920.27
2022-10-11T03:38:00.330Z,96922.02
2022-10-11T03:41:23.344Z,96928.45
2022-10-11T03:44:06.444Z,96928.73
2022-10-11T03:46:46.417Z,96927.18
2022-10-11T03:49:44.315Z,96926.45
2022-10-11T03:52:43.476Z,96926.77
2022-10-11T03:55:52.290Z,96923.73
2022-10-11T03:59:06.218Z,96926.35
2022-10-11T04:02:21.282Z,96927.52
2022-10-11T04:05:33.232Z,96925.54
2022-10-11T04:08:37.267Z,96929.47
2022-10-11T04:11:50.317Z,96927.86
2022-10-11T04:18:09.265Z,96929.21
2022-10-11T04:24:48.313Z,96931.44
2022-10-11T04:28:04.584Z,96930.53
2022-10-11T04:31:19.315Z,96927.20
2022-10-11T04:34:31.216Z,96928.52
2022-10-11T04:37:43.339Z,96927.74
2022-10-11T04:40:57.226Z,96925.85
2022-10-11T04:51:02.311Z,96935.10
2022-10-11T04:54:18.561Z,96929.56
2022-10-11T04:57:42.589Z,96931.69
2022-10-11T05:00:48.244Z,96936.21
2022-10-11T05:07:24.661Z,96943.88
2022-10-11T05:10:54.972Z,96949.97
2022-10-11T05:14:07.264Z,96948.01
2022-10-11T05:17:24.345Z,96950.84
2022-10-11T05:20:20.598Z,96948.75
2022-10-11T05:22:48.954Z,96941.91
2022-10-11T05:25:47.803Z,96944.48
2022-10-11T05:28:58.367Z,96940.23
2022-10-11T05:32:13.383Z,96942.00
2022-10-11T05:35:22.117Z,96940.91
2022-10-11T05:38:47.367Z,96949.91
2022-10-11T05:45:06.447Z,96958.42
2022-10-11T05:51:59.307Z,96971.68
2022-10-11T05:55:21.486Z,96977.42
2022-10-11T05:58:13.236Z,96974.19
2022-10-11T06:01:22.338Z,96974.48
2022-10-11T06:08:27.436Z,96976.26
2022-10-11T06:11:33.838Z,96977.11
2022-10-11T06:17:55.496Z,96978.83
2022-10-11T06:20:41.677Z,96978.79
2022-10-11T07:17:30.971Z,97020.10
2022-10-11T07:22:04.500Z,97021.63
2022-10-11T07:24:45.698Z,97020.02
2022-10-11T07:27:27.561Z,97021.88
2022-10-11T07:30:32.725Z,97020.62
2022-10-11T07:33:17.015Z,97019.52
2022-10-11T07:35:58.053Z,97015.73
2022-10-11T07:38:33.643Z,97014.65
2022-10-11T07:41:11.234Z,97016.97
2022-10-11T07:44:08.492Z,97017.45
2022-10-11T07:47:11.371Z,97020.11
2022-10-11T07:49:43.053Z,97015.89
2022-10-11T07:52:11.498Z,97022.55
2022-10-11T07:54:43.612Z,97023.58
2022-10-11T07:57:12.029Z,97025.71
2022-10-11T07:59:46.671Z,97027.23
2022-10-11T08:02:20.023Z,97022.39
2022-10-11T08:04:55.475Z,97021.95
2022-10-11T08:07:32.993Z,97027.34
2022-10-11T08:10:08.092Z,97028.13
2022-10-11T08:12:37.556Z,97031.00
2022-10-11T08:15:12.976Z,97028.42
2022-10-11T08:17:42.675Z,97032.04
2022-10-11T08:20:12.410Z,97030.42
2022-10-11T08:22:43.500Z,97030.23
2022-10-11T08:25:15.649Z,97026.41
2022-10-11T08:27:47.373Z,97022.98
2022-10-11T08:30:27.181Z,97021.30
2022-10-11T08:33:26.195Z,97027.40
2022-10-11T08:40:04.226Z,97025.27
2022-10-11T09:43:23.381Z,97025.41
2022-10-11T09:45:53.870Z,97022.64
2022-10-11T09:49:02.798Z,97020.55
2022-10-11T09:58:36.680Z,97022.14
2022-10-11T10:01:48.373Z,97020.86
2022-10-11T10:04:20.109Z,97017.94
2022-10-11T10:07:08.238Z,97014.65
2022-10-11T10:09:43.384Z,97011.70
2022-10-11T10:12:19.483Z,97016.45
2022-10-11T10:15:21.689Z,97017.35
2022-10-11T10:20:36.583Z,97014.17
2022-10-11T10:23:12.207Z,97012.36
2022-10-11T10:25:51.039Z,97010.38
2022-10-11T10:28:24.170Z,97008.94
2022-10-11T10:30:56.521Z,97006.29
2022-10-11T10:33:27.796Z,96999.49
2022-10-11T10:36:01.200Z,97003.75
2022-10-11T10:38:43.009Z,97002.59
2022-10-11T10:41:20.219Z,97002.33
2022-10-11T10:44:01.153Z,96999.38
2022-10-11T10:46:49.931Z,96995.72
2022-10-11T10:49:53.768Z,96993.79
2022-10-11T10:52:58.008Z,96991.39
2022-10-11T10:55:43.530Z,96987.78
2022-10-11T10:58:58.937Z,96980.85
2022-10-11T11:01:33.742Z,96983.98
2022-10-11T11:04:30.767Z,96975.55
2022-10-11T11:07:37.316Z,96975.83
2022-10-11T11:10:31.430Z,96966.29
2022-10-11T11:13:30.077Z,96970.30
2022-10-11T11:16:30.299Z,96967.44
2022-10-11T11:19:26.477Z,96973.15
2022-10-11T11:22:29.187Z,96969.58
2022-10-11T11:25:40.264Z,96966.57
2022-10-11T11:28:38.529Z,96963.98
2022-10-11T11:31:57.781Z,96965.70
2022-10-11T11:34:45.402Z,96962.05
2022-10-11T11:37:35.894Z,96958.61
2022-10-11T11:40:16.548Z,96956.91
2022-10-11T11:42:59.586Z,96955.11
2022-10-11T11:46:01.945Z,96950.54
2022-10-11T11:48:38.701Z,96946.59
2022-10-11T11:51:30.596Z,96942.63
2022-10-11T11:58:23.140Z,96935.86
2022-10-11T12:02:06.732Z,96937.30
2022-10-11T12:08:16.604Z,96927.66
2022-10-11T12:08:48.616Z,96927.63
2022-10-11T12:15:02.680Z,96925.26
2022-10-11T12:15:26.257Z,96922.59
2022-10-11T12:18:14.379Z,96923.65
2022-10-11T12:21:13.532Z,96922.79
2022-10-11T12:23:49.281Z,96923.79
2022-10-11T12:26:39.408Z,96922.59
2022-10-11T12:29:59.057Z,96917.02
2022-10-11T12:32:50.619Z,96917.11
2022-10-11T12:35:44.140Z,96918.45
2022-10-11T12:38:29.004Z,96916.77
2022-10-11T12:41:36.599Z,96916.23
2022-10-11T12:44:23.089Z,96915.81
2022-10-11T12:47:26.713Z,96913.68
2022-10-11T12:50:29.017Z,96913.41
2022-10-11T12:53:16.860Z,96914.67
2022-10-11T12:56:01.723Z,96910.80
2022-10-11T12:58:48.575Z,96907.92
2022-10-11T13:01:23.958Z,96901.61
2022-10-11T13:04:11.456Z,96902.58
2022-10-11T13:06:54.857Z,96897.55
2022-10-11T13:09:32.578Z,96894.14
2022-10-11T13:12:10.230Z,96889.27
2022-10-11T13:15:01.037Z,96891.64
2022-10-11T13:17:37.997Z,96885.55
2022-10-11T13:20:38.953Z,96885.48
2022-10-11T13:24:32.811Z,96884.57
2022-10-11T13:27:29.004Z,96889.46
2022-10-11T13:30:33.417Z,96891.40
2022-10-11T13:33:25.779Z,96887.99
2022-10-11T13:36:05.432Z,96887.87
2022-10-11T13:38:55.755Z,96889.15
2022-10-11T13:41:50.648Z,96889.06
2022-10-11T13:44:36.122Z,96891.20
2022-10-11T13:47:06.754Z,96889.38
2022-10-11T13:49:38.442Z,96886.09
2022-10-11T13:52:23.355Z,96887.46
2022-10-11T13:54:58.176Z,96884.11
2022-10-11T13:57:45.254Z,96884.69
2022-10-11T14:00:25.756Z,96882.08
2022-10-11T14:03:08.535Z,96879.02
2022-10-11T14:05:42.859Z,96877.53
2022-10-11T14:08:27.761Z,96877.30
2022-10-11T14:10:58.569Z,96880.19
2022-10-11T14:13:33.427Z,96883.55
2022-10-11T14:16:07.709Z,96882.98
2022-10-11T14:18:44.015Z,96880.44
2022-10-11T14:21:31.827Z,96881.20
2022-10-11T14:24:04.914Z,96882.40
2022-10-11T14:26:38.483Z,96881.38
2022-10-11T14:29:23.447Z,96880.25
2022-10-11T14:31:52.953Z,96875.42
2022-10-11T14:34:23.146Z,96880.65
2022-10-11T14:36:51.298Z,96884.02
2022-10-11T14:39:23.135Z,96887.30
2022-10-11T14:41:52.757Z,96888.95
2022-10-11T14:44:22.342Z,96886.24
2022-10-11T14:46:54.570Z,96885.59
2022-10-11T14:49:26.023Z,96881.15
2022-10-11T14:51:56.515Z,96880.91
2022-10-11T14:54:27.340Z,96881.77
2022-10-11T14:56:57.445Z,96881.39
2022-10-11T14:59:29.017Z,96880.23
2022-10-11T15:01:56.975Z,96878.44
2022-10-11T15:04:26.543Z,96874.23
2022-10-11T15:06:56.247Z,96878.45
2022-10-11T15:09:29.580Z,96880.52
2022-10-11T15:11:58.155Z,96879.52
2022-10-11T15:14:26.388Z,96880.08
2022-10-11T15:16:56.118Z,96883.65
2022-10-11T15:19:25.416Z,96887.11
2022-10-11T15:21:53.351Z,96890.39
2022-10-11T15:24:21.451Z,96894.23
2022-10-11T15:26:50.418Z,96895.63
2022-10-11T15:29:18.855Z,96901.02
2022-10-11T15:31:46.844Z,96900.41
2022-10-11T15:34:15.239Z,96902.55
2022-10-11T15:36:43.094Z,96906.23
2022-10-11T15:39:30.631Z,96902.30
2022-10-11T15:41:59.381Z,96898.31
2022-10-11T15:44:36.881Z,96901.17
2022-10-11T15:47:05.119Z,96903.63
2022-10-11T15:49:33.333Z,96906.48
2022-10-11T15:52:01.789Z,96907.15
2022-10-11T15:54:30.278Z,96909.09
2022-10-11T15:56:58.741Z,96915.84
2022-10-11T15:59:26.790Z,96915.17
2022-10-11T16:01:54.844Z,96920.90
2022-10-11T16:04:22.771Z,96925.02
2022-10-11T16:06:50.691Z,96923.34
2022-10-11T16:09:18.626Z,96926.14
2022-10-11T16:11:46.445Z,96926.08
2022-10-11T16:14:14.328Z,96928.46
2022-10-11T16:16:42.255Z,96932.24
2022-10-11T16:19:10.162Z,96931.56
2022-10-11T16:21:38.041Z,96935.78
2022-10-11T16:24:05.959Z,96937.45
2022-10-11T16:26:33.986Z,96940.42
2022-10-11T16:29:01.896Z,96945.61
2022-10-11T16:31:29.785Z,96948.85
2022-10-11T16:33:57.695Z,96952.14
2022-10-11T16:36:35.135Z,96953.48
2022-10-11T16:39:09.046Z,96952.45
2022-10-11T16:41:37.514Z,96952.37
2022-10-11T16:44:06.784Z,96951.45
2022-10-11T16:46:35.105Z,96951.62
2022-10-11T16:49:03.997Z,96954.78
2022-10-11T16:51:31.967Z,96957.16
2022-10-11T16:53:59.807Z,96958.78
2022-10-11T16:56:28.192Z,96958.77
2022-10-11T16:58:56.099Z,96958.47
2022-10-11T17:01:26.965Z,96962.73
2022-10-11T17:03:55.857Z,96963.24
2022-10-11T17:06:23.986Z,96961.64
2022-10-11T17:08:52.927Z,96964.33
2022-10-11T17:11:22.417Z,96967.36
2022-10-11T17:13:53.309Z,96967.80
2022-10-11T17:16:22.176Z,96970.14
2022-10-11T17:18:50.248Z,96975.94
2022-10-11T17:21:20.168Z,96975.45
2022-10-11T17:24:00.506Z,96974.70
2022-10-11T17:26:30.487Z,96972.16
2022-10-11T17:29:00.370Z,96973.89
2022-10-11T17:31:29.824Z,96974.75
2022-10-11T17:34:00.447Z,96979.50
2022-10-11T17:36:31.802Z,96984.37
2022-10-11T17:39:01.699Z,96983.65
2022-10-11T17:41:32.191Z,96989.42
2022-10-11T17:44:02.839Z,96989.17
2022-10-11T17:46:39.436Z,96993.94
2022-10-11T17:49:10.962Z,96992.90
2022-10-11T17:51:39.814Z,96989.55
2022-10-11T17:54:12.474Z,96988.80
2022-10-11T17:56:41.814Z,96983.61
2022-10-11T17:59:17.178Z,96981.11
2022-10-11T18:01:45.275Z,96979.11
2022-10-11T18:04:16.761Z,96977.05
2022-10-11T18:06:49.372Z,96975.90
2022-10-11T18:09:18.812Z,96976.60
2022-10-11T18:11:47.450Z,96976.56
2022-10-11T18:14:15.745Z,96975.95
2022-10-11T18:16:43.826Z,96978.77
2022-10-11T18:19:13.183Z,96982.11
2022-10-11T18:21:41.420Z,96982.45
2022-10-11T18:24:15.053Z,96981.02
2022-10-11T18:26:45.459Z,96981.52
2022-10-11T18:29:13.800Z,96976.45
2022-10-11T18:31:42.194Z,96976.45
2022-10-11T18:38:55.015Z,96978.85
2022-10-11T18:41:30.766Z,96980.34
2022-10-11T18:44:01.768Z,96977.42
2022-10-11T18:46:30.427Z,96979.15
2022-10-11T18:49:02.106Z,96977.92
2022-10-11T18:51:35.931Z,96977.46
2022-10-11T18:54:06.223Z,96977.23
2022-10-11T18:56:36.825Z,96978.20
2022-10-11T18:59:06.514Z,96975.63
2022-10-11T19:01:38.451Z,96973.95
2022-10-11T19:04:09.778Z,96975.61
2022-10-11T19:06:41.337Z,96974.75
2022-10-11T19:09:13.261Z,96974.28
2022-10-11T19:11:41.795Z,96978.55
2022-10-11T19:14:14.565Z,96976.68
2022-10-11T19:16:46.227Z,96978.89
2022-10-11T19:19:14.390Z,96980.63
2022-10-11T19:21:42.732Z,96981.52
2022-10-11T19:24:10.858Z,96984.33
2022-10-11T19:26:40.886Z,96984.37
2022-10-11T19:29:14.983Z,96984.28
2022-10-11T19:31:45.711Z,96983.69
2022-10-11T19:34:14.046Z,96986.02
2022-10-11T19:36:42.731Z,96986.55
2022-10-11T19:39:14.216Z,96987.56
2022-10-11T19:41:43.295Z,96990.83
2022-10-11T19:44:12.758Z,96991.33
2022-10-11T19:46:57.538Z,96995.43
2022-10-11T19:49:27.239Z,96998.86
2022-10-11T19:51:55.838Z,96998.73
2022-10-11T19:54:23.970Z,97002.25
2022-10-11T19:56:52.567Z,97004.92
2022-10-11T19:59:20.566Z,97004.17
2022-10-11T20:01:52.762Z,97008.85
2022-10-11T20:04:50.498Z,97004.26
2022-10-11T20:07:10.480Z,97009.95
2022-10-11T20:09:38.560Z,97009.26
2022-10-11T20:12:09.649Z,97008.94
2022-10-11T20:14:37.584Z,97006.77
2022-10-11T20:17:05.561Z,97008.42
2022-10-11T20:19:33.407Z,97005.58
2022-10-11T20:22:01.596Z,97007.06
2022-10-11T20:24:33.553Z,97008.40
2022-10-11T20:27:04.520Z,97012.50
2022-10-11T20:29:32.710Z,97011.61
2022-10-11T20:32:00.653Z,97014.16
2022-10-11T20:34:28.843Z,97012.20
2022-10-11T20:36:57.018Z,97011.23
2022-10-11T20:39:25.387Z,97011.41
2022-10-11T20:41:53.387Z,97010.68
2022-10-11T20:44:21.651Z,97005.47
2022-10-11T20:46:49.955Z,97002.64
2022-10-11T20:49:20.082Z,97003.02
2022-10-11T20:51:48.677Z,97006.02
2022-10-11T20:54:17.205Z,97005.89
2022-10-11T20:56:45.195Z,97009.60
2022-10-11T20:59:13.133Z,97006.69
2022-10-11T21:01:41.690Z,97003.69
2022-10-11T21:04:17.666Z,97007.86
2022-10-11T21:06:48.175Z,97007.92
2022-10-11T21:09:17.218Z,97004.47
2022-10-11T21:11:46.090Z,97006.34
2022-10-11T21:14:22.369Z,97006.21
2022-10-11T21:16:50.264Z,97008.56
2022-10-11T21:19:18.352Z,97002.73
2022-10-11T21:21:53.305Z,97003.98
2022-10-11T21:24:55.702Z,97001.27
2022-10-11T21:27:24.920Z,97003.09
2022-10-11T21:29:53.139Z,97005.03
2022-10-11T21:32:20.877Z,97003.75
2022-10-11T21:34:48.709Z,97001.69
2022-10-11T21:37:16.487Z,96997.94
2022-10-11T21:39:44.273Z,96998.52
2022-10-11T21:42:12.107Z,97003.71
2022-10-11T21:44:42.977Z,97000.85
2022-10-11T21:47:11.179Z,97001.77
2022-10-11T21:49:39.009Z,97002.19
2022-10-11T21:52:06.832Z,97000.41
2022-10-11T21:54:34.697Z,97003.41
2022-10-11T21:57:02.670Z,97002.05
2022-10-11T21:59:30.470Z,97001.05
2022-10-11T22:02:01.895Z,97000.71
2022-10-11T22:04:30.228Z,97001.05
2022-10-11T22:06:58.092Z,97003.09
2022-10-11T22:09:27.689Z,97003.61
2022-10-11T22:11:56.630Z,97003.77
2022-10-11T22:14:25.077Z,97008.06
2022-10-11T22:16:52.854Z,97010.97
2022-10-11T22:19:20.992Z,97007.11
2022-10-11T22:21:48.847Z,97007.48
2022-10-11T22:24:17.159Z,97005.83
2022-10-11T22:26:45.107Z,97004.92
2022-10-11T22:29:12.878Z,97008.40
2022-10-11T22:31:40.753Z,97008.34
2022-10-11T22:34:08.715Z,97006.98
2022-10-11T22:36:36.542Z,97003.94
2022-10-11T22:39:08.595Z,97005.41
2022-10-11T22:41:37.409Z,97005.79
2022-10-11T22:44:05.736Z,97005.98
2022-10-11T22:46:33.585Z,97010.02
2022-10-11T22:49:01.744Z,97008.70
2022-10-11T22:51:29.675Z,97012.52
2022-10-11T22:53:57.439Z,97009.39
2022-10-11T22:56:25.401Z,97010.64
2022-10-11T22:58:53.214Z,97009.05
2022-10-11T23:01:21.037Z,97013.15
2022-10-11T23:03:50.803Z,97010.29
2022-10-11T23:06:18.752Z,97009.36
2022-10-11T23:08:46.718Z,97010.77
2022-10-11T23:11:14.603Z,97012.45
2022-10-11T23:13:42.402Z,97013.38
2022-10-11T23:16:12.376Z,97013.48
2022-10-11T23:18:40.234Z,97013.27
2022-10-11T23:21:08.528Z,97012.07
2022-10-11T23:23:37.016Z,97009.44
2022-10-11T23:26:08.128Z,97013.71
2022-10-11T23:28:36.175Z,97014.11
2022-10-11T23:31:16.731Z,97016.36
2022-10-11T23:33:46.203Z,97020.48
2022-10-11T23:36:19.948Z,97019.13
2022-10-11T23:38:53.339Z,97018.92
2022-10-11T23:41:24.262Z,97018.09
2022-10-11T23:43:52.641Z,97017.98
2022-10-11T23:46:20.799Z,97015.94
2022-10-11T23:48:48.688Z,97014.79
2022-10-11T23:51:16.607Z,97012.09
2022-10-11T23:53:44.660Z,97008.11
2022-10-11T23:56:12.975Z,97007.34
2022-10-11T23:58:41.107Z,97011.52
